Aérodrome :
LOGIN :

S'inscrire | Disclaimer

   EN    FR    IT 

 










Légende :    VFR   VFR Marginal   IFR   IFR Intensif   IFR Très Intensif
Visi : 
Plafond : 
>= 8 km
>= 3000ft
5 à 8 km
1000 à 3000 ft
1500m à 5 km
500 à 1000 ft
800 à 1500m
200 à 500 ft
< 800m
< 200 ft
Symboles :   Orages  Brouillard  Fortes neiges  Fortes précipitations  Vent > 20 kt
SIGMETs :   Divers  Orages  Givrage  Turbulence  Onde Orograph.  Cendres Volcan.






- Altitude de l'aérodrome : 1161 ft
- Code IATA : RJL


LELO - Logroño-Agoncillo

DERNIER METAR :
  • 160730Z 28012KT CAVOK 06/01 Q1021

METARs EXPIRÉS :
  • 160700Z 27009KT 240V300 CAVOK 04/01 Q1021
  • 160630Z 26009KT CAVOK 03/M00 Q1021
  • 160600Z 25005KT CAVOK 01/M01 Q1020
  • 160530Z VRB02KT CAVOK 01/M01 Q1020
  • 160500Z 25003KT CAVOK 01/M01 Q1020

TAF TAF LELO
Valide du 16 à 03h jusqu'au 17 à 03h UTC


160200Z 1603/1703 30008KT CAVOK TX15/1615Z TN02/1606Z
PROB30
TEMPO 1608/1620 30015G25KT



MET'MAP, la Météo Aéronautique d'un coup d'oeil ! - Copyright ORBIFLY Décembre 2007 - Disclaimer

ORBIFLY MET'MAP TEAM :

Programmation & Développement : Alexandra Zaïnal
Sur une idée originale de : Baudouin d'Aumeries
Assistance à la programmation : Marc-Olivier Méhu
Soutien technique & logistique : Manuel Goepfert

Contact : metmap@orbifly.com




SOURCES & CREDITS :

   NOAA